sensor_id;sensor_type;location;lat;lon;timestamp;P1;durP1;ratioP1;P2;durP2;ratioP2
40533;SDS011;26233;51.894;10.192;2022-12-10T00:01:39;13.20;;;10.03;;
40533;SDS011;26233;51.894;10.192;2022-12-10T00:04:08;11.70;;;9.53;;
40533;SDS011;26233;51.894;10.192;2022-12-10T00:06:37;12.40;;;9.63;;
40533;SDS011;26233;51.894;10.192;2022-12-10T00:09:05;12.30;;;9.07;;
40533;SDS011;26233;51.894;10.192;2022-12-10T00:11:36;12.77;;;10.47;;
40533;SDS011;26233;51.894;10.192;2022-12-10T00:14:04;12.00;;;9.90;;
40533;SDS011;26233;51.894;10.192;2022-12-10T00:16:34;13.63;;;10.50;;
40533;SDS011;26233;51.894;10.192;2022-12-10T00:19:02;12.23;;;9.43;;
40533;SDS011;26233;51.894;10.192;2022-12-10T00:21:30;11.77;;;9.60;;
40533;SDS011;26233;51.894;10.192;2022-12-10T00:23:59;11.93;;;9.63;;
40533;SDS011;26233;51.894;10.192;2022-12-10T00:26:28;13.10;;;10.10;;
40533;SDS011;26233;51.894;10.192;2022-12-10T00:28:57;10.97;;;9.13;;
40533;SDS011;26233;51.894;10.192;2022-12-10T00:31:26;12.23;;;9.80;;
40533;SDS011;26233;51.894;10.192;2022-12-10T00:33:57;11.43;;;9.17;;
40533;SDS011;26233;51.894;10.192;2022-12-10T00:36:29;11.40;;;9.23;;
40533;SDS011;26233;51.894;10.192;2022-12-10T00:38:59;11.13;;;9.07;;
40533;SDS011;26233;51.894;10.192;2022-12-10T00:41:26;13.00;;;9.40;;
40533;SDS011;26233;51.894;10.192;2022-12-10T00:43:54;12.13;;;9.60;;
40533;SDS011;26233;51.894;10.192;2022-12-10T00:46:21;10.90;;;9.07;;
40533;SDS011;26233;51.894;10.192;2022-12-10T00:48:49;12.33;;;9.30;;
40533;SDS011;26233;51.894;10.192;2022-12-10T00:51:18;11.90;;;9.37;;
40533;SDS011;26233;51.894;10.192;2022-12-10T00:53:48;10.53;;;8.47;;
40533;SDS011;26233;51.894;10.192;2022-12-10T00:56:18;10.53;;;8.77;;
40533;SDS011;26233;51.894;10.192;2022-12-10T00:58:50;10.33;;;8.80;;
40533;SDS011;26233;51.894;10.192;2022-12-10T01:01:18;10.70;;;8.93;;
40533;SDS011;26233;51.894;10.192;2022-12-10T01:03:47;10.80;;;8.70;;
40533;SDS011;26233;51.894;10.192;2022-12-10T01:06:18;11.57;;;8.80;;
40533;SDS011;26233;51.894;10.192;2022-12-10T01:08:48;10.63;;;8.27;;
40533;SDS011;26233;51.894;10.192;2022-12-10T01:11:18;10.53;;;8.30;;
40533;SDS011;26233;51.894;10.192;2022-12-10T01:13:50;9.97;;;8.43;;
40533;SDS011;26233;51.894;10.192;2022-12-10T01:16:18;10.20;;;8.47;;
40533;SDS011;26233;51.894;10.192;2022-12-10T01:18:47;10.40;;;8.33;;
40533;SDS011;26233;51.894;10.192;2022-12-10T01:21:15;11.47;;;9.03;;
40533;SDS011;26233;51.894;10.192;2022-12-10T01:23:45;10.07;;;7.93;;
40533;SDS011;26233;51.894;10.192;2022-12-10T01:26:16;10.70;;;8.47;;
40533;SDS011;26233;51.894;10.192;2022-12-10T01:28:48;10.40;;;8.50;;
40533;SDS011;26233;51.894;10.192;2022-12-10T01:31:17;10.90;;;8.87;;
40533;SDS011;26233;51.894;10.192;2022-12-10T01:33:46;11.93;;;9.27;;
40533;SDS011;26233;51.894;10.192;2022-12-10T01:36:15;10.90;;;9.10;;
40533;SDS011;26233;51.894;10.192;2022-12-10T01:38:45;12.20;;;8.90;;
40533;SDS011;26233;51.894;10.192;2022-12-10T01:41:13;11.83;;;9.43;;
40533;SDS011;26233;51.894;10.192;2022-12-10T01:43:56;11.50;;;8.93;;
40533;SDS011;26233;51.894;10.192;2022-12-10T01:46:26;12.23;;;8.60;;
40533;SDS011;26233;51.894;10.192;2022-12-10T01:48:55;11.73;;;8.90;;
40533;SDS011;26233;51.894;10.192;2022-12-10T01:51:27;11.77;;;9.57;;
40533;SDS011;26233;51.894;10.192;2022-12-10T01:53:56;11.60;;;9.40;;
40533;SDS011;26233;51.894;10.192;2022-12-10T01:56:24;11.70;;;9.37;;
40533;SDS011;26233;51.894;10.192;2022-12-10T01:58:52;10.17;;;8.80;;
40533;SDS011;26233;51.894;10.192;2022-12-10T02:01:24;12.97;;;9.90;;
40533;SDS011;26233;51.894;10.192;2022-12-10T02:03:59;12.37;;;9.10;;
40533;SDS011;26233;51.894;10.192;2022-12-10T02:06:48;11.97;;;9.60;;
40533;SDS011;26233;51.894;10.192;2022-12-10T02:09:24;13.10;;;10.13;;
40533;SDS011;26233;51.894;10.192;2022-12-10T02:12:02;13.47;;;9.57;;
40533;SDS011;26233;51.894;10.192;2022-12-10T02:14:38;14.57;;;10.23;;
40533;SDS011;26233;51.894;10.192;2022-12-10T02:17:19;12.53;;;9.63;;
40533;SDS011;26233;51.894;10.192;2022-12-10T02:20:00;12.30;;;9.67;;
40533;SDS011;26233;51.894;10.192;2022-12-10T02:22:35;13.20;;;10.83;;
40533;SDS011;26233;51.894;10.192;2022-12-10T02:25:08;12.10;;;9.17;;
40533;SDS011;26233;51.894;10.192;2022-12-10T02:27:42;12.63;;;9.70;;
40533;SDS011;26233;51.894;10.192;2022-12-10T02:30:18;12.47;;;9.43;;
40533;SDS011;26233;51.894;10.192;2022-12-10T02:32:45;11.93;;;9.60;;
40533;SDS011;26233;51.894;10.192;2022-12-10T02:35:18;11.70;;;8.83;;
40533;SDS011;26233;51.894;10.192;2022-12-10T02:37:50;11.83;;;9.17;;
40533;SDS011;26233;51.894;10.192;2022-12-10T02:40:23;11.77;;;9.83;;
40533;SDS011;26233;51.894;10.192;2022-12-10T02:42:54;12.67;;;9.90;;
40533;SDS011;26233;51.894;10.192;2022-12-10T02:45:23;12.90;;;10.23;;
40533;SDS011;26233;51.894;10.192;2022-12-10T02:47:54;14.23;;;10.80;;
40533;SDS011;26233;51.894;10.192;2022-12-10T02:50:25;13.17;;;10.27;;
40533;SDS011;26233;51.894;10.192;2022-12-10T02:52:52;13.80;;;10.90;;
40533;SDS011;26233;51.894;10.192;2022-12-10T02:55:22;14.13;;;10.87;;
40533;SDS011;26233;51.894;10.192;2022-12-10T02:57:53;13.97;;;10.70;;
40533;SDS011;26233;51.894;10.192;2022-12-10T03:00:32;14.03;;;10.67;;
40533;SDS011;26233;51.894;10.192;2022-12-10T03:06:12;13.47;;;10.37;;
40533;SDS011;26233;51.894;10.192;2022-12-10T03:08:45;13.10;;;10.17;;
40533;SDS011;26233;51.894;10.192;2022-12-10T03:11:17;14.43;;;11.30;;
40533;SDS011;26233;51.894;10.192;2022-12-10T03:13:49;14.33;;;10.60;;
40533;SDS011;26233;51.894;10.192;2022-12-10T03:16:25;16.03;;;11.87;;
40533;SDS011;26233;51.894;10.192;2022-12-10T03:18:56;14.37;;;10.90;;
40533;SDS011;26233;51.894;10.192;2022-12-10T03:21:29;13.37;;;10.60;;
40533;SDS011;26233;51.894;10.192;2022-12-10T03:23:59;14.93;;;11.37;;
40533;SDS011;26233;51.894;10.192;2022-12-10T03:26:26;14.67;;;11.57;;
40533;SDS011;26233;51.894;10.192;2022-12-10T03:28:55;15.63;;;11.47;;
40533;SDS011;26233;51.894;10.192;2022-12-10T03:31:29;15.37;;;11.40;;
40533;SDS011;26233;51.894;10.192;2022-12-10T03:33:57;14.23;;;11.13;;
40533;SDS011;26233;51.894;10.192;2022-12-10T03:36:24;15.33;;;11.33;;
40533;SDS011;26233;51.894;10.192;2022-12-10T03:38:58;15.27;;;10.83;;
40533;SDS011;26233;51.894;10.192;2022-12-10T03:41:26;13.93;;;10.73;;
40533;SDS011;26233;51.894;10.192;2022-12-10T03:43:53;15.30;;;11.40;;
40533;SDS011;26233;51.894;10.192;2022-12-10T03:46:23;14.83;;;11.30;;
40533;SDS011;26233;51.894;10.192;2022-12-10T03:48:55;16.83;;;11.87;;
40533;SDS011;26233;51.894;10.192;2022-12-10T03:51:22;14.97;;;11.60;;
40533;SDS011;26233;51.894;10.192;2022-12-10T03:53:53;17.57;;;12.93;;
40533;SDS011;26233;51.894;10.192;2022-12-10T03:56:20;18.27;;;12.20;;
40533;SDS011;26233;51.894;10.192;2022-12-10T03:58:48;15.80;;;12.00;;
40533;SDS011;26233;51.894;10.192;2022-12-10T04:01:15;16.53;;;11.40;;
40533;SDS011;26233;51.894;10.192;2022-12-10T04:03:43;16.07;;;11.80;;
40533;SDS011;26233;51.894;10.192;2022-12-10T04:06:16;15.70;;;11.23;;
40533;SDS011;26233;51.894;10.192;2022-12-10T04:08:44;14.43;;;10.60;;
40533;SDS011;26233;51.894;10.192;2022-12-10T04:11:15;15.07;;;11.33;;
40533;SDS011;26233;51.894;10.192;2022-12-10T04:13:43;12.43;;;9.80;;
40533;SDS011;26233;51.894;10.192;2022-12-10T04:16:27;13.20;;;9.93;;
40533;SDS011;26233;51.894;10.192;2022-12-10T04:18:57;13.13;;;10.30;;
40533;SDS011;26233;51.894;10.192;2022-12-10T04:21:28;12.50;;;10.53;;
40533;SDS011;26233;51.894;10.192;2022-12-10T04:24:15;15.63;;;11.23;;
40533;SDS011;26233;51.894;10.192;2022-12-10T04:27:03;15.47;;;11.20;;
40533;SDS011;26233;51.894;10.192;2022-12-10T04:29:34;17.33;;;12.77;;
40533;SDS011;26233;51.894;10.192;2022-12-10T04:32:01;15.67;;;11.97;;
40533;SDS011;26233;51.894;10.192;2022-12-10T04:34:28;15.20;;;11.73;;
40533;SDS011;26233;51.894;10.192;2022-12-10T04:36:58;17.33;;;13.03;;
40533;SDS011;26233;51.894;10.192;2022-12-10T04:39:26;18.13;;;12.37;;
40533;SDS011;26233;51.894;10.192;2022-12-10T04:41:53;17.47;;;13.13;;
40533;SDS011;26233;51.894;10.192;2022-12-10T04:44:20;18.17;;;13.10;;
40533;SDS011;26233;51.894;10.192;2022-12-10T04:46:47;17.30;;;12.77;;
40533;SDS011;26233;51.894;10.192;2022-12-10T04:49:14;16.27;;;12.40;;
40533;SDS011;26233;51.894;10.192;2022-12-10T04:51:42;17.40;;;12.67;;
40533;SDS011;26233;51.894;10.192;2022-12-10T04:54:11;15.57;;;12.03;;
40533;SDS011;26233;51.894;10.192;2022-12-10T04:56:39;18.87;;;13.43;;
40533;SDS011;26233;51.894;10.192;2022-12-10T04:59:08;16.67;;;12.50;;
40533;SDS011;26233;51.894;10.192;2022-12-10T05:01:36;16.63;;;12.63;;
40533;SDS011;26233;51.894;10.192;2022-12-10T05:04:04;18.73;;;13.93;;
40533;SDS011;26233;51.894;10.192;2022-12-10T05:06:32;18.00;;;12.77;;
40533;SDS011;26233;51.894;10.192;2022-12-10T05:09:00;17.67;;;12.50;;
40533;SDS011;26233;51.894;10.192;2022-12-10T05:11:31;16.43;;;12.03;;
40533;SDS011;26233;51.894;10.192;2022-12-10T05:13:59;15.53;;;12.00;;
40533;SDS011;26233;51.894;10.192;2022-12-10T05:16:29;15.87;;;11.77;;
40533;SDS011;26233;51.894;10.192;2022-12-10T05:18:59;16.57;;;12.07;;
40533;SDS011;26233;51.894;10.192;2022-12-10T05:21:27;16.27;;;12.47;;
40533;SDS011;26233;51.894;10.192;2022-12-10T05:24:16;15.97;;;11.60;;
40533;SDS011;26233;51.894;10.192;2022-12-10T05:26:44;15.40;;;11.77;;
40533;SDS011;26233;51.894;10.192;2022-12-10T05:29:12;16.40;;;12.13;;
40533;SDS011;26233;51.894;10.192;2022-12-10T05:31:39;16.83;;;12.80;;
40533;SDS011;26233;51.894;10.192;2022-12-10T05:34:06;16.63;;;12.50;;
40533;SDS011;26233;51.894;10.192;2022-12-10T05:36:38;17.57;;;12.70;;
40533;SDS011;26233;51.894;10.192;2022-12-10T05:39:05;18.07;;;12.90;;
40533;SDS011;26233;51.894;10.192;2022-12-10T05:41:33;18.00;;;12.40;;
40533;SDS011;26233;51.894;10.192;2022-12-10T05:44:06;17.37;;;12.37;;
40533;SDS011;26233;51.894;10.192;2022-12-10T05:46:35;18.07;;;12.73;;
40533;SDS011;26233;51.894;10.192;2022-12-10T05:49:03;18.63;;;13.07;;
40533;SDS011;26233;51.894;10.192;2022-12-10T05:51:31;16.83;;;12.67;;
40533;SDS011;26233;51.894;10.192;2022-12-10T05:54:02;17.47;;;13.10;;
40533;SDS011;26233;51.894;10.192;2022-12-10T05:56:30;17.93;;;13.07;;
40533;SDS011;26233;51.894;10.192;2022-12-10T05:58:58;17.27;;;12.70;;
40533;SDS011;26233;51.894;10.192;2022-12-10T06:01:29;15.93;;;11.60;;
40533;SDS011;26233;51.894;10.192;2022-12-10T06:03:58;15.30;;;11.73;;
40533;SDS011;26233;51.894;10.192;2022-12-10T06:06:28;16.33;;;12.13;;
40533;SDS011;26233;51.894;10.192;2022-12-10T06:08:57;13.57;;;10.40;;
40533;SDS011;26233;51.894;10.192;2022-12-10T06:11:25;14.37;;;11.10;;
40533;SDS011;26233;51.894;10.192;2022-12-10T06:13:53;13.57;;;10.27;;
40533;SDS011;26233;51.894;10.192;2022-12-10T06:16:22;12.87;;;10.20;;
40533;SDS011;26233;51.894;10.192;2022-12-10T06:18:52;13.30;;;10.03;;
40533;SDS011;26233;51.894;10.192;2022-12-10T06:21:20;12.23;;;9.93;;
40533;SDS011;26233;51.894;10.192;2022-12-10T06:23:47;11.37;;;8.83;;
40533;SDS011;26233;51.894;10.192;2022-12-10T06:26:17;12.63;;;9.77;;
40533;SDS011;26233;51.894;10.192;2022-12-10T06:28:46;12.23;;;9.07;;
40533;SDS011;26233;51.894;10.192;2022-12-10T06:31:14;13.37;;;10.20;;
40533;SDS011;26233;51.894;10.192;2022-12-10T06:33:42;11.87;;;8.97;;
40533;SDS011;26233;51.894;10.192;2022-12-10T06:36:11;13.33;;;10.43;;
40533;SDS011;26233;51.894;10.192;2022-12-10T06:38:40;12.00;;;9.43;;
40533;SDS011;26233;51.894;10.192;2022-12-10T06:41:09;12.70;;;9.93;;
40533;SDS011;26233;51.894;10.192;2022-12-10T06:43:38;12.47;;;9.60;;
40533;SDS011;26233;51.894;10.192;2022-12-10T06:46:09;13.27;;;10.07;;
40533;SDS011;26233;51.894;10.192;2022-12-10T06:48:37;12.97;;;10.03;;
40533;SDS011;26233;51.894;10.192;2022-12-10T06:51:05;12.73;;;9.83;;
40533;SDS011;26233;51.894;10.192;2022-12-10T06:53:39;12.40;;;9.30;;
40533;SDS011;26233;51.894;10.192;2022-12-10T06:56:07;12.83;;;9.60;;
40533;SDS011;26233;51.894;10.192;2022-12-10T06:58:38;12.13;;;9.67;;
40533;SDS011;26233;51.894;10.192;2022-12-10T07:01:05;12.57;;;9.67;;
40533;SDS011;26233;51.894;10.192;2022-12-10T07:03:34;11.77;;;9.73;;
40533;SDS011;26233;51.894;10.192;2022-12-10T07:06:02;12.23;;;9.80;;
40533;SDS011;26233;51.894;10.192;2022-12-10T07:08:32;12.27;;;9.67;;
40533;SDS011;26233;51.894;10.192;2022-12-10T07:11:02;11.23;;;8.97;;
40533;SDS011;26233;51.894;10.192;2022-12-10T07:13:30;12.63;;;9.00;;
40533;SDS011;26233;51.894;10.192;2022-12-10T07:15:57;12.13;;;9.50;;
40533;SDS011;26233;51.894;10.192;2022-12-10T07:18:24;13.10;;;9.37;;
40533;SDS011;26233;51.894;10.192;2022-12-10T07:20:52;12.13;;;9.87;;
40533;SDS011;26233;51.894;10.192;2022-12-10T07:23:20;13.07;;;9.53;;
40533;SDS011;26233;51.894;10.192;2022-12-10T07:25:48;12.73;;;9.67;;
40533;SDS011;26233;51.894;10.192;2022-12-10T07:28:15;13.33;;;9.50;;
40533;SDS011;26233;51.894;10.192;2022-12-10T07:30:45;11.83;;;8.93;;
40533;SDS011;26233;51.894;10.192;2022-12-10T07:33:12;11.07;;;8.53;;
40533;SDS011;26233;51.894;10.192;2022-12-10T07:35:39;13.13;;;9.37;;
40533;SDS011;26233;51.894;10.192;2022-12-10T07:38:06;12.27;;;9.70;;
40533;SDS011;26233;51.894;10.192;2022-12-10T07:40:33;13.87;;;10.47;;
40533;SDS011;26233;51.894;10.192;2022-12-10T07:43:02;12.73;;;9.30;;
40533;SDS011;26233;51.894;10.192;2022-12-10T07:45:29;11.97;;;8.93;;
40533;SDS011;26233;51.894;10.192;2022-12-10T07:47:56;12.40;;;9.33;;
40533;SDS011;26233;51.894;10.192;2022-12-10T07:50:23;13.47;;;9.57;;
40533;SDS011;26233;51.894;10.192;2022-12-10T07:52:50;12.70;;;9.67;;
40533;SDS011;26233;51.894;10.192;2022-12-10T07:55:18;13.07;;;9.17;;
40533;SDS011;26233;51.894;10.192;2022-12-10T07:57:45;12.60;;;9.33;;
40533;SDS011;26233;51.894;10.192;2022-12-10T08:00:14;14.47;;;10.37;;
40533;SDS011;26233;51.894;10.192;2022-12-10T08:02:41;14.97;;;10.40;;
40533;SDS011;26233;51.894;10.192;2022-12-10T08:05:09;14.73;;;10.10;;
40533;SDS011;26233;51.894;10.192;2022-12-10T08:07:36;13.63;;;9.73;;
40533;SDS011;26233;51.894;10.192;2022-12-10T08:10:09;13.50;;;10.27;;
40533;SDS011;26233;51.894;10.192;2022-12-10T08:12:45;14.23;;;10.50;;
40533;SDS011;26233;51.894;10.192;2022-12-10T08:15:13;13.33;;;10.30;;
40533;SDS011;26233;51.894;10.192;2022-12-10T08:17:42;13.40;;;10.17;;
40533;SDS011;26233;51.894;10.192;2022-12-10T08:20:09;14.03;;;10.17;;
40533;SDS011;26233;51.894;10.192;2022-12-10T08:22:36;13.90;;;9.83;;
40533;SDS011;26233;51.894;10.192;2022-12-10T08:25:04;13.20;;;9.97;;
40533;SDS011;26233;51.894;10.192;2022-12-10T08:27:32;13.33;;;9.53;;
40533;SDS011;26233;51.894;10.192;2022-12-10T08:29:59;11.20;;;8.43;;
40533;SDS011;26233;51.894;10.192;2022-12-10T08:32:27;11.77;;;8.70;;
40533;SDS011;26233;51.894;10.192;2022-12-10T08:34:55;12.70;;;9.43;;
40533;SDS011;26233;51.894;10.192;2022-12-10T08:37:22;12.63;;;9.03;;
40533;SDS011;26233;51.894;10.192;2022-12-10T08:39:49;14.23;;;9.73;;
40533;SDS011;26233;51.894;10.192;2022-12-10T08:42:16;12.43;;;9.43;;
40533;SDS011;26233;51.894;10.192;2022-12-10T08:44:43;14.03;;;9.53;;
40533;SDS011;26233;51.894;10.192;2022-12-10T08:47:10;11.70;;;8.43;;
40533;SDS011;26233;51.894;10.192;2022-12-10T08:49:38;13.17;;;9.53;;
40533;SDS011;26233;51.894;10.192;2022-12-10T08:52:05;13.13;;;9.20;;
40533;SDS011;26233;51.894;10.192;2022-12-10T08:54:33;13.10;;;9.43;;
40533;SDS011;26233;51.894;10.192;2022-12-10T08:57:03;12.80;;;9.57;;
40533;SDS011;26233;51.894;10.192;2022-12-10T08:59:30;13.50;;;10.07;;
40533;SDS011;26233;51.894;10.192;2022-12-10T09:01:57;14.57;;;10.53;;
40533;SDS011;26233;51.894;10.192;2022-12-10T09:04:24;14.20;;;10.63;;
40533;SDS011;26233;51.894;10.192;2022-12-10T09:06:52;15.60;;;11.17;;
40533;SDS011;26233;51.894;10.192;2022-12-10T09:09:19;13.27;;;9.50;;
40533;SDS011;26233;51.894;10.192;2022-12-10T09:11:46;14.83;;;10.83;;
40533;SDS011;26233;51.894;10.192;2022-12-10T09:14:13;11.53;;;9.30;;
40533;SDS011;26233;51.894;10.192;2022-12-10T09:16:40;13.37;;;9.40;;
40533;SDS011;26233;51.894;10.192;2022-12-10T09:19:07;13.50;;;10.17;;
40533;SDS011;26233;51.894;10.192;2022-12-10T09:21:35;11.90;;;9.30;;
40533;SDS011;26233;51.894;10.192;2022-12-10T09:24:04;12.87;;;9.40;;
40533;SDS011;26233;51.894;10.192;2022-12-10T09:26:34;13.30;;;9.47;;
40533;SDS011;26233;51.894;10.192;2022-12-10T09:29:04;14.83;;;10.50;;
40533;SDS011;26233;51.894;10.192;2022-12-10T09:31:31;14.47;;;10.27;;
40533;SDS011;26233;51.894;10.192;2022-12-10T09:33:58;15.03;;;10.90;;
40533;SDS011;26233;51.894;10.192;2022-12-10T09:36:27;15.00;;;10.30;;
40533;SDS011;26233;51.894;10.192;2022-12-10T09:38:54;13.90;;;9.67;;
40533;SDS011;26233;51.894;10.192;2022-12-10T09:44:31;13.57;;;9.80;;
40533;SDS011;26233;51.894;10.192;2022-12-10T09:47:09;13.73;;;10.37;;
40533;SDS011;26233;51.894;10.192;2022-12-10T09:49:42;14.70;;;10.37;;
40533;SDS011;26233;51.894;10.192;2022-12-10T09:52:22;12.83;;;9.47;;
40533;SDS011;26233;51.894;10.192;2022-12-10T09:54:53;15.77;;;10.43;;
40533;SDS011;26233;51.894;10.192;2022-12-10T09:57:26;12.23;;;9.80;;
40533;SDS011;26233;51.894;10.192;2022-12-10T09:59:56;14.40;;;10.33;;
40533;SDS011;26233;51.894;10.192;2022-12-10T10:02:43;14.50;;;10.47;;
40533;SDS011;26233;51.894;10.192;2022-12-10T10:05:13;13.57;;;10.00;;
40533;SDS011;26233;51.894;10.192;2022-12-10T10:07:47;14.60;;;10.47;;
40533;SDS011;26233;51.894;10.192;2022-12-10T10:10:23;12.93;;;9.77;;
40533;SDS011;26233;51.894;10.192;2022-12-10T10:12:54;13.27;;;9.37;;
40533;SDS011;26233;51.894;10.192;2022-12-10T10:15:27;12.30;;;9.13;;
40533;SDS011;26233;51.894;10.192;2022-12-10T10:17:59;13.37;;;9.23;;
40533;SDS011;26233;51.894;10.192;2022-12-10T10:20:32;12.23;;;9.47;;
40533;SDS011;26233;51.894;10.192;2022-12-10T10:22:59;13.87;;;10.23;;
40533;SDS011;26233;51.894;10.192;2022-12-10T10:25:28;13.23;;;9.77;;
40533;SDS011;26233;51.894;10.192;2022-12-10T10:27:56;15.20;;;10.23;;
40533;SDS011;26233;51.894;10.192;2022-12-10T10:30:23;13.60;;;9.57;;
40533;SDS011;26233;51.894;10.192;2022-12-10T10:32:51;13.73;;;10.23;;
40533;SDS011;26233;51.894;10.192;2022-12-10T10:35:24;13.23;;;10.30;;
40533;SDS011;26233;51.894;10.192;2022-12-10T10:37:59;13.00;;;9.67;;
40533;SDS011;26233;51.894;10.192;2022-12-10T10:40:29;12.40;;;9.63;;
40533;SDS011;26233;51.894;10.192;2022-12-10T10:43:03;13.37;;;10.10;;
40533;SDS011;26233;51.894;10.192;2022-12-10T10:45:31;14.03;;;10.30;;
40533;SDS011;26233;51.894;10.192;2022-12-10T10:48:05;12.73;;;9.43;;
40533;SDS011;26233;51.894;10.192;2022-12-10T10:50:38;11.73;;;9.40;;
40533;SDS011;26233;51.894;10.192;2022-12-10T10:53:25;13.07;;;9.73;;
40533;SDS011;26233;51.894;10.192;2022-12-10T10:55:57;12.60;;;9.03;;
40533;SDS011;26233;51.894;10.192;2022-12-10T10:58:33;14.80;;;9.93;;
40533;SDS011;26233;51.894;10.192;2022-12-10T11:01:03;13.33;;;10.47;;
40533;SDS011;26233;51.894;10.192;2022-12-10T11:03:32;13.33;;;10.07;;
40533;SDS011;26233;51.894;10.192;2022-12-10T11:06:04;13.00;;;9.53;;
40533;SDS011;26233;51.894;10.192;2022-12-10T11:08:34;15.97;;;10.27;;
40533;SDS011;26233;51.894;10.192;2022-12-10T11:11:10;13.77;;;10.30;;
40533;SDS011;26233;51.894;10.192;2022-12-10T11:13:40;14.77;;;11.07;;
40533;SDS011;26233;51.894;10.192;2022-12-10T11:16:12;14.93;;;10.87;;
40533;SDS011;26233;51.894;10.192;2022-12-10T11:18:54;16.60;;;11.17;;
40533;SDS011;26233;51.894;10.192;2022-12-10T11:21:27;14.00;;;10.10;;
40533;SDS011;26233;51.894;10.192;2022-12-10T11:23:55;14.70;;;10.97;;
40533;SDS011;26233;51.894;10.192;2022-12-10T11:26:31;14.47;;;11.00;;
40533;SDS011;26233;51.894;10.192;2022-12-10T11:29:12;14.70;;;11.13;;
40533;SDS011;26233;51.894;10.192;2022-12-10T11:32:07;18.37;;;13.10;;
40533;SDS011;26233;51.894;10.192;2022-12-10T11:34:49;14.97;;;11.27;;
40533;SDS011;26233;51.894;10.192;2022-12-10T11:37:27;12.90;;;10.10;;
40533;SDS011;26233;51.894;10.192;2022-12-10T11:40:06;14.07;;;9.80;;
40533;SDS011;26233;51.894;10.192;2022-12-10T11:42:52;14.57;;;11.07;;
40533;SDS011;26233;51.894;10.192;2022-12-10T11:45:44;12.67;;;9.30;;
40533;SDS011;26233;51.894;10.192;2022-12-10T11:48:27;14.27;;;10.20;;
40533;SDS011;26233;51.894;10.192;2022-12-10T11:51:06;11.07;;;9.00;;
40533;SDS011;26233;51.894;10.192;2022-12-10T11:53:43;12.30;;;9.20;;
40533;SDS011;26233;51.894;10.192;2022-12-10T11:56:26;11.63;;;9.03;;
40533;SDS011;26233;51.894;10.192;2022-12-10T11:59:01;14.17;;;10.00;;
40533;SDS011;26233;51.894;10.192;2022-12-10T12:01:43;12.80;;;9.43;;
40533;SDS011;26233;51.894;10.192;2022-12-10T12:04:30;11.73;;;9.20;;
40533;SDS011;26233;51.894;10.192;2022-12-10T12:07:18;14.03;;;9.77;;
40533;SDS011;26233;51.894;10.192;2022-12-10T12:10:10;13.33;;;10.70;;
40533;SDS011;26233;51.894;10.192;2022-12-10T12:12:57;13.57;;;10.13;;
40533;SDS011;26233;51.894;10.192;2022-12-10T12:15:28;13.67;;;10.47;;
40533;SDS011;26233;51.894;10.192;2022-12-10T12:18:00;13.37;;;9.80;;
40533;SDS011;26233;51.894;10.192;2022-12-10T12:20:33;14.23;;;10.87;;
40533;SDS011;26233;51.894;10.192;2022-12-10T12:23:07;16.73;;;11.70;;
40533;SDS011;26233;51.894;10.192;2022-12-10T12:25:41;15.23;;;11.27;;
40533;SDS011;26233;51.894;10.192;2022-12-10T12:28:14;15.93;;;11.03;;
40533;SDS011;26233;51.894;10.192;2022-12-10T12:30:47;17.30;;;12.77;;
40533;SDS011;26233;51.894;10.192;2022-12-10T12:33:24;15.27;;;11.40;;
40533;SDS011;26233;51.894;10.192;2022-12-10T12:35:56;13.37;;;10.13;;
40533;SDS011;26233;51.894;10.192;2022-12-10T12:38:30;15.83;;;11.37;;
40533;SDS011;26233;51.894;10.192;2022-12-10T12:41:00;14.60;;;11.17;;
40533;SDS011;26233;51.894;10.192;2022-12-10T12:43:36;14.87;;;11.20;;
40533;SDS011;26233;51.894;10.192;2022-12-10T12:46:10;15.97;;;12.57;;
40533;SDS011;26233;51.894;10.192;2022-12-10T12:48:46;17.63;;;12.83;;
40533;SDS011;26233;51.894;10.192;2022-12-10T12:51:23;15.30;;;11.60;;
40533;SDS011;26233;51.894;10.192;2022-12-10T12:53:58;14.93;;;11.23;;
40533;SDS011;26233;51.894;10.192;2022-12-10T12:56:30;14.53;;;11.37;;
40533;SDS011;26233;51.894;10.192;2022-12-10T12:59:23;15.03;;;11.60;;
40533;SDS011;26233;51.894;10.192;2022-12-10T13:02:05;16.40;;;12.07;;
40533;SDS011;26233;51.894;10.192;2022-12-10T13:04:48;15.40;;;11.97;;
40533;SDS011;26233;51.894;10.192;2022-12-10T13:07:33;15.67;;;11.70;;
40533;SDS011;26233;51.894;10.192;2022-12-10T13:12:52;15.03;;;11.07;;
40533;SDS011;26233;51.894;10.192;2022-12-10T13:15:43;16.50;;;12.27;;
40533;SDS011;26233;51.894;10.192;2022-12-10T13:18:33;17.83;;;12.03;;
40533;SDS011;26233;51.894;10.192;2022-12-10T13:24:06;18.27;;;12.80;;
40533;SDS011;26233;51.894;10.192;2022-12-10T13:27:01;16.03;;;11.43;;
40533;SDS011;26233;51.894;10.192;2022-12-10T13:29:42;15.70;;;10.73;;
40533;SDS011;26233;51.894;10.192;2022-12-10T13:32:14;16.77;;;11.30;;
40533;SDS011;26233;51.894;10.192;2022-12-10T13:34:43;21.17;;;13.90;;
40533;SDS011;26233;51.894;10.192;2022-12-10T13:37:16;18.90;;;12.30;;
40533;SDS011;26233;51.894;10.192;2022-12-10T13:40:00;16.90;;;12.47;;
40533;SDS011;26233;51.894;10.192;2022-12-10T13:42:42;17.67;;;12.40;;
40533;SDS011;26233;51.894;10.192;2022-12-10T13:45:30;19.57;;;14.07;;
40533;SDS011;26233;51.894;10.192;2022-12-10T13:51:04;18.40;;;13.47;;
40533;SDS011;26233;51.894;10.192;2022-12-10T13:53:51;18.70;;;12.43;;
40533;SDS011;26233;51.894;10.192;2022-12-10T13:56:36;16.73;;;11.97;;
40533;SDS011;26233;51.894;10.192;2022-12-10T13:59:14;17.97;;;12.07;;
40533;SDS011;26233;51.894;10.192;2022-12-10T14:01:56;16.57;;;12.03;;
40533;SDS011;26233;51.894;10.192;2022-12-10T14:04:52;17.57;;;12.43;;
40533;SDS011;26233;51.894;10.192;2022-12-10T14:07:37;20.67;;;13.43;;
40533;SDS011;26233;51.894;10.192;2022-12-10T14:10:07;19.13;;;13.20;;
40533;SDS011;26233;51.894;10.192;2022-12-10T14:12:41;17.83;;;12.57;;
40533;SDS011;26233;51.894;10.192;2022-12-10T14:15:14;19.83;;;13.33;;
40533;SDS011;26233;51.894;10.192;2022-12-10T14:17:46;21.20;;;14.03;;
40533;SDS011;26233;51.894;10.192;2022-12-10T14:20:22;18.67;;;13.73;;
40533;SDS011;26233;51.894;10.192;2022-12-10T14:22:51;20.33;;;13.67;;
40533;SDS011;26233;51.894;10.192;2022-12-10T14:25:42;18.10;;;12.47;;
40533;SDS011;26233;51.894;10.192;2022-12-10T14:28:11;21.90;;;14.70;;
40533;SDS011;26233;51.894;10.192;2022-12-10T14:30:42;19.50;;;13.13;;
40533;SDS011;26233;51.894;10.192;2022-12-10T14:33:12;20.23;;;13.33;;
40533;SDS011;26233;51.894;10.192;2022-12-10T14:35:42;19.40;;;13.77;;
40533;SDS011;26233;51.894;10.192;2022-12-10T14:38:16;18.80;;;13.43;;
40533;SDS011;26233;51.894;10.192;2022-12-10T14:40:48;18.50;;;12.40;;
40533;SDS011;26233;51.894;10.192;2022-12-10T14:43:17;19.40;;;13.83;;
40533;SDS011;26233;51.894;10.192;2022-12-10T14:45:48;19.97;;;13.77;;
40533;SDS011;26233;51.894;10.192;2022-12-10T14:48:19;17.30;;;12.20;;
40533;SDS011;26233;51.894;10.192;2022-12-10T14:50:46;20.33;;;12.63;;
40533;SDS011;26233;51.894;10.192;2022-12-10T14:53:16;20.23;;;13.33;;
40533;SDS011;26233;51.894;10.192;2022-12-10T14:55:50;20.10;;;13.50;;